createdAt,value
2022-08-14T00:01:03.993Z,60.40
2022-08-14T00:03:40.460Z,60.50
2022-08-14T00:06:13.855Z,60.10
2022-08-14T00:08:44.986Z,60.10
2022-08-14T00:11:12.244Z,60.20
2022-08-14T00:13:39.131Z,60.50
2022-08-14T00:16:07.626Z,60.70
2022-08-14T00:19:06.293Z,60.60
2022-08-14T00:21:22.432Z,60.40
2022-08-14T00:24:01.387Z,60.20
2022-08-14T00:26:29.072Z,60.30
2022-08-14T00:28:55.857Z,60.30
2022-08-14T00:31:44.004Z,60.20
2022-08-14T00:34:37.728Z,60.20
2022-08-14T00:36:56.375Z,60.30
2022-08-14T00:39:26.090Z,60.60
2022-08-14T00:41:53.148Z,60.80
2022-08-14T00:44:21.265Z,60.90
2022-08-14T00:47:00.910Z,60.90
2022-08-14T00:49:30.036Z,61.20
2022-08-14T00:51:57.137Z,61.30
2022-08-14T00:54:24.980Z,61.30
2022-08-14T00:56:55.615Z,61.20
2022-08-14T00:59:27.472Z,61.40
2022-08-14T01:01:58.549Z,61.40
2022-08-14T01:04:37.963Z,61.50
2022-08-14T01:07:15.626Z,61.60
2022-08-14T01:09:42.609Z,61.80
2022-08-14T01:12:10.775Z,61.80
2022-08-14T01:14:37.655Z,61.30
2022-08-14T01:17:09.003Z,61.00
2022-08-14T01:19:54.199Z,61.00
2022-08-14T01:22:20.901Z,61.10
2022-08-14T01:24:53.419Z,62.20
2022-08-14T01:27:22.384Z,61.40
2022-08-14T01:30:03.081Z,61.40
2022-08-14T01:32:35.365Z,61.50
2022-08-14T01:35:20.710Z,60.90
2022-08-14T01:37:56.859Z,60.80
2022-08-14T01:40:36.167Z,61.00
2022-08-14T01:43:15.637Z,61.20
2022-08-14T01:45:49.170Z,61.40
2022-08-14T01:48:33.183Z,61.70
2022-08-14T01:51:03.273Z,61.80
2022-08-14T01:53:32.761Z,61.80
2022-08-14T01:56:04.432Z,61.90
2022-08-14T01:58:55.628Z,61.70
2022-08-14T02:01:26.544Z,61.70
2022-08-14T02:03:57.063Z,62.60
2022-08-14T02:06:32.466Z,61.80
2022-08-14T02:09:02.411Z,62.00
2022-08-14T02:11:31.158Z,62.00
2022-08-14T02:14:06.716Z,62.00
2022-08-14T02:16:39.229Z,62.10
2022-08-14T02:19:11.738Z,61.50
2022-08-14T02:21:47.049Z,61.70
2022-08-14T02:24:39.670Z,61.80
2022-08-14T02:28:23.734Z,62.00
2022-08-14T02:30:00.006Z,62.00
2022-08-14T02:32:30.412Z,63.00
2022-08-14T02:35:10.220Z,62.00
2022-08-14T02:37:47.191Z,62.00
2022-08-14T02:40:16.570Z,62.10
2022-08-14T02:42:47.385Z,61.80
2022-08-14T02:45:22.263Z,61.60
2022-08-14T02:47:49.729Z,61.20
2022-08-14T02:50:27.081Z,61.50
2022-08-14T02:52:57.398Z,61.50
2022-08-14T02:55:31.032Z,61.70
2022-08-14T02:58:03.695Z,61.70
2022-08-14T03:00:35.448Z,61.70
2022-08-14T03:03:08.018Z,61.70
2022-08-14T03:05:37.007Z,61.70
2022-08-14T03:08:09.670Z,61.90
2022-08-14T03:10:41.852Z,61.90
2022-08-14T03:13:19.728Z,61.70
2022-08-14T03:15:56.038Z,61.50
2022-08-14T03:18:30.682Z,61.70
2022-08-14T03:21:00.233Z,61.90
2022-08-14T03:23:27.922Z,62.00
2022-08-14T03:25:54.657Z,62.20
2022-08-14T03:28:29.504Z,62.30
2022-08-14T03:31:00.198Z,63.20
2022-08-14T03:33:27.863Z,62.50
2022-08-14T03:37:38.520Z,62.60
2022-08-14T03:39:15.879Z,62.50
2022-08-14T03:41:47.623Z,62.90
2022-08-14T03:45:25.324Z,63.00
2022-08-14T03:47:03.183Z,63.80
2022-08-14T03:49:30.276Z,63.20
2022-08-14T03:52:17.684Z,63.30
2022-08-14T03:54:52.492Z,63.20
2022-08-14T03:57:20.286Z,63.30
2022-08-14T03:59:49.646Z,63.30
2022-08-14T04:02:46.815Z,63.80
2022-08-14T04:05:12.004Z,63.50
2022-08-14T04:07:49.374Z,63.30
2022-08-14T04:10:17.530Z,62.70
2022-08-14T04:12:53.271Z,62.80
2022-08-14T04:15:23.531Z,62.80
2022-08-14T04:17:50.350Z,62.90
2022-08-14T04:20:25.629Z,63.00
2022-08-14T04:22:55.534Z,63.10
2022-08-14T04:25:22.527Z,63.00
2022-08-14T04:28:03.256Z,62.50
2022-08-14T04:30:32.520Z,62.50
2022-08-14T04:33:05.517Z,62.50
2022-08-14T04:35:56.305Z,62.60
2022-08-14T04:38:42.162Z,62.70
2022-08-14T04:41:30.500Z,63.70
2022-08-14T04:43:57.954Z,63.00
2022-08-14T04:46:56.736Z,63.00
2022-08-14T04:49:11.622Z,63.20
2022-08-14T04:51:46.939Z,63.40
2022-08-14T04:54:26.893Z,63.60
2022-08-14T04:56:55.017Z,63.70
2022-08-14T04:59:22.815Z,63.60
2022-08-14T05:01:52.873Z,63.60
2022-08-14T05:04:22.189Z,63.80
2022-08-14T05:06:55.049Z,64.00
2022-08-14T05:09:23.767Z,63.80
2022-08-14T05:11:51.594Z,64.00
2022-08-14T05:14:43.383Z,64.40
2022-08-14T05:17:06.883Z,64.10
2022-08-14T05:19:33.825Z,63.90
2022-08-14T05:22:17.189Z,63.80
2022-08-14T05:24:48.737Z,63.70
2022-08-14T05:27:22.924Z,63.50
2022-08-14T05:29:55.226Z,63.60
2022-08-14T05:32:27.225Z,63.30
2022-08-14T05:34:58.291Z,63.50
2022-08-14T05:37:26.654Z,63.50
2022-08-14T05:39:54.351Z,63.50
2022-08-14T05:42:29.357Z,63.60
2022-08-14T05:44:58.802Z,63.50
2022-08-14T05:47:28.994Z,63.00
2022-08-14T05:50:18.573Z,62.80
2022-08-14T05:52:46.720Z,62.50
2022-08-14T05:55:13.770Z,62.20
2022-08-14T05:58:02.383Z,62.10
2022-08-14T06:00:36.886Z,62.20
2022-08-14T06:03:07.232Z,62.10
2022-08-14T06:05:38.653Z,62.90
2022-08-14T06:08:08.828Z,62.00
2022-08-14T06:10:53.904Z,61.90
2022-08-14T06:13:20.657Z,61.90
2022-08-14T06:15:47.804Z,61.80
2022-08-14T06:18:17.587Z,61.70
2022-08-14T06:20:44.857Z,61.50
2022-08-14T06:23:13.204Z,61.60
2022-08-14T06:25:41.602Z,61.70
2022-08-14T06:28:27.946Z,61.20
2022-08-14T06:30:55.449Z,61.10
2022-08-14T06:33:22.630Z,60.80
2022-08-14T06:35:49.905Z,60.80
2022-08-14T06:38:23.239Z,60.60
2022-08-14T06:40:51.522Z,60.60
2022-08-14T06:43:20.393Z,60.50
2022-08-14T06:45:53.650Z,60.20
2022-08-14T06:48:23.928Z,60.10
2022-08-14T06:50:52.109Z,60.00
2022-08-14T06:53:19.761Z,60.10
2022-08-14T06:55:57.838Z,60.80
2022-08-14T06:58:29.212Z,60.20
2022-08-14T07:01:16.996Z,60.00
2022-08-14T07:04:05.743Z,60.20
2022-08-14T07:06:46.823Z,60.00
2022-08-14T07:09:19.491Z,60.00
2022-08-14T07:11:49.601Z,59.80
2022-08-14T07:14:16.377Z,59.90
2022-08-14T07:16:43.267Z,59.90
2022-08-14T07:19:11.460Z,59.60
2022-08-14T07:21:39.692Z,59.20
2022-08-14T07:24:09.774Z,59.10
2022-08-14T07:26:48.989Z,59.20
2022-08-14T07:29:15.748Z,58.60
2022-08-14T07:31:44.536Z,59.00
2022-08-14T07:34:13.198Z,59.00
2022-08-14T07:37:01.198Z,58.90
2022-08-14T07:39:28.625Z,58.80
2022-08-14T07:41:55.489Z,58.70
2022-08-14T07:44:32.497Z,58.70
2022-08-14T07:47:03.732Z,58.50
2022-08-14T07:49:32.390Z,58.50
2022-08-14T07:52:00.018Z,58.40
2022-08-14T07:54:29.976Z,58.40
2022-08-14T07:57:06.549Z,58.40
2022-08-14T07:59:42.388Z,58.60
2022-08-14T08:02:18.815Z,58.60
2022-08-14T08:04:54.005Z,58.00
2022-08-14T08:07:21.834Z,58.20
2022-08-14T08:09:53.059Z,58.40
2022-08-14T08:12:21.234Z,58.50
2022-08-14T08:14:56.997Z,58.30
2022-08-14T08:17:35.019Z,58.10
2022-08-14T08:20:11.758Z,58.10
2022-08-14T08:22:40.803Z,58.20
2022-08-14T08:25:13.467Z,58.20
2022-08-14T08:27:44.599Z,58.30
2022-08-14T08:30:12.500Z,58.20
2022-08-14T08:32:42.995Z,58.30
2022-08-14T08:35:21.161Z,58.40
2022-08-14T08:37:48.611Z,58.20
2022-08-14T08:40:42.657Z,58.10
2022-08-14T08:43:30.349Z,58.00
2022-08-14T08:45:58.645Z,57.40
2022-08-14T08:48:31.889Z,57.50
2022-08-14T08:51:05.264Z,57.20
2022-08-14T08:53:32.955Z,57.00
2022-08-14T08:56:01.004Z,57.30
2022-08-14T08:58:28.398Z,57.10
2022-08-14T09:00:57.267Z,56.90
2022-08-14T09:03:28.489Z,56.50
2022-08-14T09:05:57.339Z,56.50
2022-08-14T09:08:31.670Z,56.60
2022-08-14T09:11:01.359Z,56.70
2022-08-14T09:13:30.432Z,56.60
2022-08-14T09:15:57.655Z,56.30
2022-08-14T09:18:24.502Z,56.40
2022-08-14T09:20:54.768Z,56.30
2022-08-14T09:23:27.407Z,56.40
2022-08-14T09:26:02.052Z,56.30
2022-08-14T09:28:31.945Z,56.20
2022-08-14T09:31:01.254Z,56.20
2022-08-14T09:34:02.402Z,56.10
2022-08-14T09:37:11.259Z,55.90
2022-08-14T09:40:00.085Z,55.90
2022-08-14T09:42:45.154Z,55.60
2022-08-14T09:45:23.882Z,55.60
2022-08-14T09:47:57.292Z,55.50
2022-08-14T09:50:32.027Z,55.20
2022-08-14T09:53:02.648Z,54.90
2022-08-14T09:55:42.358Z,54.80
2022-08-14T09:58:15.056Z,54.80
2022-08-14T10:00:46.892Z,54.90
2022-08-14T10:03:33.169Z,55.00
2022-08-14T10:06:14.457Z,55.20
2022-08-14T10:08:45.221Z,53.60
2022-08-14T10:11:24.675Z,54.00
2022-08-14T10:14:12.048Z,54.20
2022-08-14T10:16:47.259Z,54.70
2022-08-14T10:19:16.002Z,53.90
2022-08-14T10:21:58.854Z,53.80
2022-08-14T10:24:37.260Z,53.90
2022-08-14T10:27:04.610Z,53.90
2022-08-14T10:29:38.454Z,53.70
2022-08-14T10:32:17.446Z,53.60
2022-08-14T10:34:46.029Z,53.40
2022-08-14T10:37:14.867Z,53.40
2022-08-14T10:39:51.428Z,53.50
2022-08-14T10:42:36.872Z,53.30
2022-08-14T10:45:18.377Z,53.30
2022-08-14T10:48:09.527Z,53.20
2022-08-14T10:50:33.259Z,53.30
2022-08-14T10:53:00.313Z,53.40
2022-08-14T10:55:39.512Z,53.20
2022-08-14T10:58:14.719Z,53.40
2022-08-14T11:00:46.892Z,53.20
2022-08-14T11:03:20.053Z,53.20
2022-08-14T11:06:10.978Z,53.30
2022-08-14T11:08:39.988Z,53.00
2022-08-14T11:11:07.721Z,53.00
2022-08-14T11:13:38.243Z,52.90
2022-08-14T11:16:05.157Z,52.70
2022-08-14T11:18:40.080Z,52.60
2022-08-14T11:21:08.361Z,52.60
2022-08-14T11:23:39.641Z,52.30
2022-08-14T11:26:08.743Z,52.10
2022-08-14T11:28:47.873Z,52.20
2022-08-14T11:31:18.514Z,51.90
2022-08-14T11:33:48.820Z,52.10
2022-08-14T11:36:17.864Z,52.00
2022-08-14T11:38:46.044Z,51.90
2022-08-14T11:41:14.563Z,51.90
2022-08-14T11:43:55.947Z,52.00
2022-08-14T11:46:30.528Z,51.70
2022-08-14T11:49:05.499Z,51.60
2022-08-14T11:51:36.003Z,52.10
2022-08-14T11:54:05.461Z,51.60
2022-08-14T11:56:36.034Z,51.40
2022-08-14T11:59:02.751Z,51.70
2022-08-14T12:01:33.309Z,51.00
2022-08-14T12:04:32.710Z,51.10
2022-08-14T12:07:01.128Z,50.90
2022-08-14T12:09:29.089Z,50.90
2022-08-14T12:11:56.137Z,50.90
2022-08-14T12:14:30.188Z,50.70
2022-08-14T12:17:11.983Z,50.80
2022-08-14T12:19:56.478Z,50.10
2022-08-14T12:22:37.928Z,49.90
2022-08-14T12:25:11.259Z,50.50
2022-08-14T12:27:53.292Z,49.80
2022-08-14T12:30:39.605Z,49.50
2022-08-14T12:33:30.886Z,50.00
2022-08-14T12:36:04.486Z,49.90
2022-08-14T12:38:44.184Z,49.80
2022-08-14T12:41:27.896Z,49.90
2022-08-14T12:44:03.198Z,49.80
2022-08-14T12:46:37.633Z,49.20
2022-08-14T12:49:10.106Z,49.20
2022-08-14T12:51:37.907Z,49.10
2022-08-14T12:54:27.646Z,48.90
2022-08-14T12:57:10.300Z,48.90
2022-08-14T12:59:43.052Z,48.80
2022-08-14T13:02:25.903Z,48.70
2022-08-14T13:04:55.545Z,49.30
2022-08-14T13:07:22.431Z,48.60
2022-08-14T13:09:55.193Z,48.40
2022-08-14T13:12:33.159Z,48.60
2022-08-14T13:15:08.986Z,48.30
2022-08-14T13:17:41.982Z,48.10
2022-08-14T13:20:10.709Z,48.30
2022-08-14T13:22:50.858Z,47.90
2022-08-14T13:25:26.549Z,47.90
2022-08-14T13:28:00.935Z,47.70
2022-08-14T13:30:27.872Z,47.40
2022-08-14T13:32:57.915Z,47.40
2022-08-14T13:35:25.231Z,47.20
2022-08-14T13:37:53.606Z,47.10
2022-08-14T13:40:26.445Z,47.10
2022-08-14T13:42:55.327Z,46.50
2022-08-14T13:45:24.574Z,46.60
2022-08-14T13:48:18.448Z,46.90
2022-08-14T13:50:59.235Z,46.90
2022-08-14T13:53:33.355Z,46.50
2022-08-14T13:56:00.404Z,46.20
2022-08-14T13:58:30.223Z,46.40
2022-08-14T14:01:01.178Z,46.50
2022-08-14T14:03:30.366Z,47.10
2022-08-14T14:05:58.699Z,46.80
2022-08-14T14:08:46.626Z,46.20
2022-08-14T14:11:15.653Z,46.30
2022-08-14T14:13:45.181Z,46.00
2022-08-14T14:16:15.291Z,46.10
2022-08-14T14:18:52.115Z,45.90
2022-08-14T14:21:21.523Z,45.50
2022-08-14T14:23:49.302Z,45.20
2022-08-14T14:26:23.026Z,45.00
2022-08-14T14:28:54.786Z,44.90
2022-08-14T14:31:29.605Z,44.50
2022-08-14T14:34:07.480Z,44.70
2022-08-14T14:36:49.891Z,44.80
2022-08-14T14:39:20.151Z,44.70
2022-08-14T14:41:47.469Z,44.50
2022-08-14T14:44:24.293Z,44.30
2022-08-14T14:46:53.275Z,43.90
2022-08-14T14:49:21.854Z,43.90
2022-08-14T14:51:51.395Z,43.60
2022-08-14T14:54:30.823Z,43.20
2022-08-14T14:57:00.201Z,43.30
2022-08-14T14:59:30.174Z,43.50
2022-08-14T15:02:06.255Z,43.70
2022-08-14T15:04:39.038Z,43.10
2022-08-14T15:07:10.742Z,43.10
2022-08-14T15:09:39.398Z,42.90
2022-08-14T15:12:28.006Z,42.90
2022-08-14T15:14:58.127Z,42.90
2022-08-14T15:17:41.543Z,43.40
2022-08-14T15:20:17.170Z,43.40
2022-08-14T15:22:57.021Z,43.30
2022-08-14T15:25:24.343Z,42.80
2022-08-14T15:27:54.355Z,42.40
2022-08-14T15:30:23.605Z,42.20
2022-08-14T15:32:51.436Z,42.20
2022-08-14T15:35:22.234Z,42.10
2022-08-14T15:37:55.700Z,43.20
2022-08-14T15:40:23.293Z,42.90
2022-08-14T15:42:50.089Z,43.00
2022-08-14T15:45:17.225Z,42.60
2022-08-14T15:47:44.265Z,42.50
2022-08-14T15:50:12.957Z,42.00
2022-08-14T15:52:42.953Z,42.00
2022-08-14T15:55:14.776Z,42.30
2022-08-14T15:58:01.270Z,42.20
2022-08-14T16:00:49.452Z,42.40
2022-08-14T16:03:18.028Z,42.60
2022-08-14T16:05:51.876Z,42.70
2022-08-14T16:08:27.283Z,42.80
2022-08-14T16:10:56.853Z,43.00
2022-08-14T16:13:40.444Z,43.10
2022-08-14T16:16:46.965Z,42.90
2022-08-14T16:19:11.920Z,42.40
2022-08-14T16:21:39.571Z,42.30
2022-08-14T16:24:06.569Z,42.10
2022-08-14T16:26:33.489Z,42.00
2022-08-14T16:29:08.975Z,41.90
2022-08-14T16:31:39.892Z,42.10
2022-08-14T16:34:46.221Z,42.20
2022-08-14T16:36:59.206Z,42.30
2022-08-14T16:39:26.033Z,42.60
2022-08-14T16:41:58.134Z,41.10
2022-08-14T16:44:33.496Z,40.90
2022-08-14T16:47:02.132Z,39.70
2022-08-14T16:50:03.211Z,39.60
2022-08-14T16:52:25.948Z,40.00
2022-08-14T16:55:04.772Z,40.00
2022-08-14T16:57:34.117Z,40.40
2022-08-14T17:00:00.959Z,40.70
2022-08-14T17:02:39.786Z,41.20
2022-08-14T17:05:20.979Z,41.20
2022-08-14T17:08:31.813Z,41.40
2022-08-14T17:10:59.656Z,41.30
2022-08-14T17:13:59.627Z,41.50
2022-08-14T17:16:24.947Z,41.80
2022-08-14T17:18:55.434Z,42.00
2022-08-14T17:21:34.425Z,42.30
2022-08-14T17:24:58.319Z,42.40
2022-08-14T17:26:55.636Z,42.50
2022-08-14T17:29:23.629Z,42.80
2022-08-14T17:34:52.705Z,43.50
2022-08-14T17:37:40.901Z,43.70
2022-08-14T17:40:20.848Z,43.80
2022-08-14T17:42:51.590Z,43.90
2022-08-14T17:45:42.821Z,44.20
2022-08-14T17:49:10.845Z,44.50
2022-08-14T17:51:24.196Z,44.90
2022-08-14T17:54:02.704Z,45.20
2022-08-14T17:56:32.004Z,45.20
2022-08-14T17:59:02.139Z,45.30
2022-08-14T18:01:31.106Z,45.40
2022-08-14T18:03:58.885Z,45.50
2022-08-14T18:06:38.759Z,45.40
2022-08-14T18:09:26.309Z,46.20
2022-08-14T18:11:58.577Z,45.70
2022-08-14T18:14:32.140Z,45.90
2022-08-14T18:17:00.286Z,46.60
2022-08-14T18:19:28.451Z,46.10
2022-08-14T18:21:57.870Z,46.20
2022-08-14T18:24:30.029Z,46.10
2022-08-14T18:27:09.155Z,46.10
2022-08-14T18:29:43.116Z,46.30
2022-08-14T18:32:31.052Z,46.60
2022-08-14T18:35:10.908Z,46.60
2022-08-14T18:37:39.666Z,46.70
2022-08-14T18:40:17.868Z,47.40
2022-08-14T18:43:03.477Z,47.00
2022-08-14T18:45:32.587Z,47.10
2022-08-14T18:48:18.053Z,47.30
2022-08-14T18:51:09.596Z,47.40
2022-08-14T18:53:58.130Z,47.60
2022-08-14T18:56:57.672Z,47.60
2022-08-14T18:59:35.700Z,47.90
2022-08-14T19:02:30.401Z,48.00
2022-08-14T19:04:59.038Z,48.20
2022-08-14T19:07:34.002Z,48.40
2022-08-14T19:10:10.228Z,48.40
2022-08-14T19:12:53.020Z,48.50
2022-08-14T19:15:26.101Z,48.80
2022-08-14T19:18:14.107Z,48.80
2022-08-14T19:20:56.547Z,49.00
2022-08-14T19:23:40.710Z,49.10
2022-08-14T19:26:36.819Z,49.20
2022-08-14T19:29:36.190Z,49.60
2022-08-14T19:32:06.596Z,49.60
2022-08-14T19:34:47.953Z,49.70
2022-08-14T19:37:36.878Z,49.80
2022-08-14T19:40:19.372Z,49.90
2022-08-14T19:42:47.352Z,49.80
2022-08-14T19:45:15.803Z,50.00
2022-08-14T19:47:42.757Z,50.10
2022-08-14T19:50:37.839Z,50.20
2022-08-14T19:53:16.427Z,50.30
2022-08-14T19:55:49.482Z,50.60
2022-08-14T19:58:16.238Z,50.60
2022-08-14T20:00:52.123Z,50.80
2022-08-14T20:03:23.888Z,51.00
2022-08-14T20:06:01.281Z,51.10
2022-08-14T20:11:00.561Z,51.30
2022-08-14T20:12:02.030Z,51.40
2022-08-14T20:14:29.558Z,51.70
2022-08-14T20:17:05.973Z,51.80
2022-08-14T20:19:37.717Z,52.50
2022-08-14T20:22:37.278Z,52.10
2022-08-14T20:24:55.444Z,52.10
2022-08-14T20:27:34.302Z,52.10
2022-08-14T20:30:32.863Z,52.70
2022-08-14T20:33:07.980Z,52.20
2022-08-14T20:35:52.288Z,52.40
2022-08-14T20:38:33.193Z,52.40
2022-08-14T20:41:05.749Z,52.40
2022-08-14T20:43:53.404Z,52.40
2022-08-14T20:46:38.571Z,52.50
2022-08-14T20:49:10.724Z,52.70
2022-08-14T20:52:00.153Z,52.70
2022-08-14T20:54:34.460Z,52.80
2022-08-14T20:57:10.537Z,53.00
2022-08-14T20:59:43.529Z,53.00
2022-08-14T21:02:34.684Z,53.10
2022-08-14T21:05:17.155Z,53.20
2022-08-14T21:07:50.750Z,53.20
2022-08-14T21:10:34.012Z,53.30
2022-08-14T21:13:27.452Z,53.30
2022-08-14T21:15:57.358Z,53.30
2022-08-14T21:18:30.499Z,53.40
2022-08-14T21:20:59.373Z,53.40
2022-08-14T21:23:32.726Z,53.90
2022-08-14T21:26:00.135Z,53.40
2022-08-14T21:28:29.747Z,53.50
2022-08-14T21:31:01.569Z,53.70
2022-08-14T21:33:28.861Z,53.80
2022-08-14T21:35:56.367Z,53.70
2022-08-14T21:38:34.198Z,53.90
2022-08-14T21:41:03.047Z,53.90
2022-08-14T21:44:05.305Z,54.00
2022-08-14T21:46:49.567Z,54.20
2022-08-14T21:49:23.729Z,54.30
2022-08-14T21:51:59.917Z,54.40
2022-08-14T21:54:49.530Z,54.50
2022-08-14T21:57:17.389Z,54.50
2022-08-14T21:59:44.653Z,55.00
2022-08-14T22:02:32.506Z,54.50
2022-08-14T22:04:59.009Z,54.30
2022-08-14T22:07:29.329Z,54.40
2022-08-14T22:09:56.420Z,54.60
2022-08-14T22:12:58.827Z,54.60
2022-08-14T22:15:14.783Z,54.70
2022-08-14T22:17:44.205Z,54.80
2022-08-14T22:20:12.414Z,54.90
2022-08-14T22:22:43.265Z,55.00
2022-08-14T22:25:17.378Z,55.00
2022-08-14T22:27:56.049Z,55.10
2022-08-14T22:30:23.584Z,55.20
2022-08-14T22:32:57.534Z,55.20
2022-08-14T22:35:25.365Z,55.30
2022-08-14T22:38:34.865Z,55.40
2022-08-14T22:41:17.863Z,55.30
2022-08-14T22:43:27.618Z,55.30
2022-08-14T22:46:02.075Z,55.50
2022-08-14T22:48:29.483Z,55.60
2022-08-14T22:50:56.359Z,55.50
2022-08-14T22:53:24.220Z,55.30
2022-08-14T22:55:56.765Z,55.50
2022-08-14T22:58:30.343Z,55.60
2022-08-14T23:01:01.340Z,55.80
2022-08-14T23:03:28.503Z,56.50
2022-08-14T23:05:55.689Z,56.10
2022-08-14T23:09:01.847Z,56.10
2022-08-14T23:11:10.346Z,56.10
2022-08-14T23:13:39.019Z,56.10
2022-08-14T23:16:06.773Z,56.10
2022-08-14T23:18:34.543Z,56.20
2022-08-14T23:21:01.752Z,56.30
2022-08-14T23:23:28.535Z,56.30
2022-08-14T23:26:00.228Z,56.20
2022-08-14T23:28:56.930Z,56.40
2022-08-14T23:31:34.699Z,56.50
2022-08-14T23:34:07.672Z,56.50
2022-08-14T23:36:37.225Z,57.10
2022-08-14T23:39:10.579Z,56.60
2022-08-14T23:41:52.988Z,56.60
2022-08-14T23:44:24.279Z,56.70
2022-08-14T23:46:56.887Z,56.90
2022-08-14T23:49:28.662Z,56.90
2022-08-14T23:52:51.192Z,56.80
2022-08-14T23:55:02.245Z,56.70
2022-08-14T23:57:30.687Z,56.80
2022-08-14T23:59:57.614Z,56.90
